Time;durP1;ratioP1;P1;durP2;ratioP2;P2;SDS_P1;SDS_P2;PMS_P1;PMS_P2;Temp;Humidity;BMP_temperature;BMP_pressure;BME280_temperature;BME280_humidity;BME280_pressure;Samples;Min_cycle;Max_cycle;Signal;HPM_P1;HPM_P2
2022/05/31 00:01:39;;;;;;;0.35;0.35;;;;;;;10.56;63.36;97750.63;5034078;28;20136;-64
2022/05/31 00:04:06;;;;;;;0.22;0.22;;;;;;;10.52;63.54;97760.47;5034321;28;20524;-63
2022/05/31 00:06:32;;;;;;;0.10;0.10;;;;;;;10.47;63.57;97765.91;5033841;28;20049;-64
2022/05/31 00:08:58;;;;;;;0.20;0.20;;;;;;;10.45;63.76;97766.19;5022322;28;20492;-63
2022/05/31 00:11:24;;;;;;;0.50;0.35;;;;;;;10.44;63.72;97767.25;5013741;28;20075;-64
2022/05/31 00:13:50;;;;;;;0.38;0.38;;;;;;;10.44;63.65;97759.03;5014161;28;20050;-63
2022/05/31 00:16:15;;;;;;;0.20;0.20;;;;;;;10.43;63.83;97765.59;5028080;28;20154;-64
2022/05/31 00:18:41;;;;;;;3.55;0.80;;;;;;;10.44;63.82;97756.28;5033699;28;20073;-65
2022/05/31 00:21:10;;;;;;;0.30;0.30;;;;;;;10.48;63.75;97760.16;5033964;28;20041;-65
2022/05/31 00:23:40;;;;;;;0.32;0.32;;;;;;;10.55;63.72;97753.63;5033797;28;20041;-65
2022/05/31 00:26:06;;;;;;;0.30;0.30;;;;;;;10.61;63.63;97771.81;5033628;28;20045;-65
2022/05/31 00:28:32;;;;;;;0.40;0.40;;;;;;;10.65;63.60;97768.28;5033573;28;20099;-65
2022/05/31 00:30:58;;;;;;;0.20;0.20;;;;;;;10.69;63.63;97771.34;5033447;28;20041;-63
2022/05/31 00:34:03;;;;;;;0.20;0.20;;;;;;;10.74;63.62;97765.88;5024245;28;20060;-64
2022/05/31 00:37:09;;;;;;;0.20;0.20;;;;;;;10.73;63.64;97761.47;5051203;28;20072;-66
2022/05/31 00:40:21;;;;;;;0.20;0.20;;;;;;;10.76;63.66;97768.34;5042916;28;20455;-65
2022/05/31 00:43:30;;;;;;;0.30;0.30;;;;;;;10.75;63.79;97770.28;5033028;28;20047;-65
2022/05/31 00:46:38;;;;;;;0.15;0.15;;;;;;;10.71;63.74;97774.63;5032069;28;20137;-64
2022/05/31 00:49:44;;;;;;;0.20;0.20;;;;;;;10.70;64.01;97775.72;5032913;28;20407;-65
2022/05/31 00:52:33;;;;;;;0.30;0.30;;;;;;;10.67;64.14;97779.00;5046394;28;20090;-66
2022/05/31 00:58:34;;;;;;;0.30;0.30;;;;;;;10.59;64.28;97779.47;5050139;28;20055;-66
2022/05/31 01:01:04;;;;;;;0.30;0.30;;;;;;;10.57;64.33;97789.88;5052919;28;20510;-63
2022/05/31 01:03:33;;;;;;;0.50;0.50;;;;;;;10.52;64.64;97796.97;5052999;28;20119;-63
2022/05/31 01:05:58;;;;;;;0.40;0.40;;;;;;;10.50;64.76;97801.91;5052691;28;20040;-62
2022/05/31 01:08:24;;;;;;;0.30;0.30;;;;;;;10.45;64.72;97793.63;5052879;28;20048;-64
2022/05/31 01:10:50;;;;;;;0.20;0.20;;;;;;;10.38;65.01;97798.50;5052890;28;20049;-63
2022/05/31 01:13:17;;;;;;;0.10;0.10;;;;;;;10.36;65.31;97797.09;5053093;28;20041;-65
2022/05/31 01:15:45;;;;;;;0.20;0.20;;;;;;;10.31;65.38;97806.88;5035722;28;20172;-65
2022/05/31 01:18:12;;;;;;;0.40;0.40;;;;;;;10.28;65.54;97801.09;5032390;28;20045;-65
2022/05/31 01:20:38;;;;;;;0.20;0.20;;;;;;;10.24;65.62;97805.44;5032383;28;20041;-66
2022/05/31 01:23:17;;;;;;;0.20;0.20;;;;;;;10.23;65.82;97803.78;5032611;28;20049;-67
2022/05/31 01:25:45;;;;;;;0.75;0.40;;;;;;;10.22;65.86;97813.91;5025879;28;20466;-67
2022/05/31 01:28:28;;;;;;;0.20;0.20;;;;;;;10.21;65.80;97797.72;5052143;28;20051;-68
2022/05/31 01:31:19;;;;;;;4.57;0.50;;;;;;;10.25;65.99;97804.34;5037631;28;20478;-67
2022/05/31 01:34:03;;;;;;;0.30;0.30;;;;;;;10.14;66.16;97814.38;5031170;28;20069;-64
2022/05/31 01:37:09;;;;;;;0.20;0.20;;;;;;;10.07;66.50;97822.81;5030100;28;20042;-62
2022/05/31 01:39:43;;;;;;;;;;;;;;;10.02;66.44;97822.72;5031039;28;20060;-63
2022/05/31 01:42:40;;;;;;;0.25;0.25;;;;;;;10.02;66.43;97825.47;5020164;28;20367;-63
2022/05/31 01:45:26;;;;;;;0.20;0.20;;;;;;;10.05;66.44;97824.97;5032673;28;20149;-62
2022/05/31 01:47:57;;;;;;;0.20;0.20;;;;;;;10.04;66.43;97833.44;5031784;28;20068;-66
2022/05/31 01:50:27;;;;;;;0.20;0.20;;;;;;;10.02;66.52;97836.44;5033299;28;20048;-65
2022/05/31 01:52:57;;;;;;;0.22;0.22;;;;;;;10.02;66.67;97836.44;5049861;28;20033;-66
2022/05/31 01:55:23;;;;;;;0.20;0.20;;;;;;;10.07;66.56;97842.00;5043612;28;20050;-68
2022/05/31 01:58:02;;;;;;;0.50;0.50;;;;;;;10.10;66.61;97837.91;5040774;28;20037;-67
2022/05/31 02:00:30;;;;;;;0.50;0.50;;;;;;;10.17;66.47;97844.88;5049550;28;20037;-67
2022/05/31 02:02:59;;;;;;;0.30;0.30;;;;;;;10.22;66.49;97846.00;5029660;28;20056;-66
2022/05/31 02:05:27;;;;;;;1.75;0.60;;;;;;;10.28;66.33;97855.97;5013597;28;20495;-66
2022/05/31 02:08:00;;;;;;;0.25;0.25;;;;;;;10.33;66.53;97848.66;5029584;28;20068;-63
2022/05/31 02:10:29;;;;;;;0.40;0.40;;;;;;;10.30;66.60;97856.53;5029736;28;20408;-63
2022/05/31 02:12:57;;;;;;;0.35;0.35;;;;;;;10.28;66.67;97859.53;5030041;28;20084;-63
2022/05/31 02:15:26;;;;;;;0.20;0.20;;;;;;;10.24;66.94;97865.78;5033743;28;20061;-63
2022/05/31 02:17:54;;;;;;;0.20;0.20;;;;;;;10.22;67.09;97862.44;5043841;28;20575;-63
2022/05/31 02:20:21;;;;;;;1.50;0.57;;;;;;;10.10;67.46;97881.78;4995325;28;20042;-66
2022/05/31 02:22:51;;;;;;;1.80;1.15;;;;;;;10.03;67.65;97881.16;5026338;28;20041;-63
2022/05/31 02:25:19;;;;;;;0.47;0.47;;;;;;;9.93;67.70;97893.63;5000626;28;20065;-65
2022/05/31 02:27:47;;;;;;;0.55;0.55;;;;;;;9.78;68.17;97880.56;5013545;28;20041;-64
2022/05/31 02:30:14;;;;;;;0.40;0.40;;;;;;;9.71;68.31;97888.13;5013655;28;20557;-63
2022/05/31 02:32:41;;;;;;;1.02;0.52;;;;;;;9.65;68.46;97900.91;5030533;28;20039;-64
2022/05/31 02:35:11;;;;;;;0.20;0.20;;;;;;;9.62;68.42;97895.13;5039919;28;20164;-65
2022/05/31 02:37:38;;;;;;;0.13;0.13;;;;;;;9.63;68.37;97899.53;5023133;28;20081;-65
2022/05/31 02:40:06;;;;;;;0.38;0.38;;;;;;;9.70;68.34;97897.44;5013600;28;20531;-64
2022/05/31 02:42:36;;;;;;;0.30;0.30;;;;;;;9.77;68.10;97906.31;5013000;28;20042;-64
2022/05/31 02:45:05;;;;;;;0.10;0.10;;;;;;;9.79;67.90;97909.63;5030939;28;20069;-65
2022/05/31 02:47:32;;;;;;;0.20;0.20;;;;;;;9.85;67.89;97912.44;5051033;28;20041;-65
2022/05/31 02:50:00;;;;;;;0.20;0.20;;;;;;;9.93;67.60;97915.56;5039445;28;20037;-65
2022/05/31 02:52:27;;;;;;;0.28;0.28;;;;;;;10.00;67.53;97918.16;5031360;28;20049;-66
2022/05/31 02:54:55;;;;;;;0.20;0.20;;;;;;;10.14;67.38;97927.69;5046356;28;20508;-65
2022/05/31 02:57:22;;;;;;;0.17;0.17;;;;;;;10.18;67.37;97925.25;5029742;28;20045;-66
2022/05/31 02:59:52;;;;;;;0.32;0.32;;;;;;;10.24;67.20;97935.19;5048600;28;20562;-66
2022/05/31 03:02:20;;;;;;;0.13;0.13;;;;;;;10.25;67.29;97934.13;5024901;28;20038;-67
2022/05/31 03:04:48;;;;;;;0.30;0.30;;;;;;;10.31;66.96;97932.28;5021935;28;20128;-65
2022/05/31 03:07:16;;;;;;;0.25;0.25;;;;;;;10.28;67.33;97943.75;5033641;28;20048;-65
2022/05/31 03:09:44;;;;;;;0.10;0.10;;;;;;;10.23;67.57;97947.28;5049839;28;20045;-65
2022/05/31 03:12:17;;;;;;;0.28;0.28;;;;;;;10.18;67.74;97950.75;5046492;28;20045;-64
2022/05/31 03:15:03;;;;;;;0.10;0.10;;;;;;;10.19;67.84;97946.13;5054620;28;20415;-64
2022/05/31 03:17:49;;;;;;;0.15;0.15;;;;;;;10.38;67.32;97965.88;5039289;28;20052;-63
2022/05/31 03:20:26;;;;;;;0.20;0.20;;;;;;;10.80;66.44;97956.22;4997300;28;20416;-63
2022/05/31 03:23:18;;;;;;;0.30;0.25;;;;;;;11.15;65.76;97963.19;4997727;28;20045;-64
2022/05/31 03:25:47;;;;;;;0.20;0.20;;;;;;;11.16;65.69;97965.69;4995146;28;20463;-64
2022/05/31 03:28:16;;;;;;;0.15;0.15;;;;;;;11.02;66.15;97975.41;5015445;28;20046;-63
2022/05/31 03:30:43;;;;;;;0.20;0.20;;;;;;;10.92;66.69;97983.53;5054204;28;20067;-63
2022/05/31 03:33:11;;;;;;;0.20;0.20;;;;;;;10.74;67.24;97980.03;5036455;28;20140;-65
2022/05/31 03:35:39;;;;;;;0.10;0.10;;;;;;;10.78;67.19;97980.38;5036808;28;20072;-64
2022/05/31 03:38:07;;;;;;;0.10;0.10;;;;;;;10.81;67.20;97980.69;5036791;28;20041;-66
2022/05/31 03:43:19;;;;;;;0.13;0.13;;;;;;;10.67;67.67;97995.88;5055163;28;20063;-66
2022/05/31 03:45:47;;;;;;;0.13;0.13;;;;;;;10.56;67.86;97999.59;5054186;28;20037;-63
2022/05/31 03:48:16;;;;;;;0.13;0.13;;;;;;;10.48;68.21;97992.59;5035280;28;20522;-63
2022/05/31 03:50:44;;;;;;;0.10;0.10;;;;;;;10.42;68.15;98010.09;5036129;28;20064;-64
2022/05/31 03:53:13;;;;;;;0.15;0.15;;;;;;;10.33;68.49;98001.44;5054539;28;20033;-64
2022/05/31 03:55:44;;;;;;;0.13;0.13;;;;;;;10.28;68.74;98006.88;5052927;28;20041;-64
2022/05/31 03:58:12;;;;;;;0.40;0.40;;;;;;;10.32;68.53;98011.59;5054462;28;20044;-64
2022/05/31 04:00:38;;;;;;;0.15;0.15;;;;;;;10.37;68.45;98024.59;5052113;28;20033;-63
2022/05/31 04:03:06;;;;;;;0.20;0.20;;;;;;;10.42;68.30;98024.63;5052002;28;20040;-64
2022/05/31 04:05:32;;;;;;;0.47;0.25;;;;;;;10.39;68.43;98030.63;5015411;28;20037;-62
2022/05/31 04:08:06;;;;;;;0.20;0.20;;;;;;;10.44;68.21;98027.16;5031755;28;20053;-62
2022/05/31 04:10:33;;;;;;;0.20;0.20;;;;;;;10.41;68.51;98016.66;5030992;28;20420;-63
2022/05/31 04:13:00;;;;;;;0.35;0.30;;;;;;;10.44;68.13;98024.41;5031709;28;20038;-63
2022/05/31 04:15:27;;;;;;;0.20;0.20;;;;;;;10.60;68.06;98041.91;5012735;28;20041;-63
2022/05/31 04:17:55;;;;;;;0.10;0.10;;;;;;;10.67;67.97;98048.03;5013324;28;20037;-64
2022/05/31 04:20:24;;;;;;;0.13;0.13;;;;;;;10.71;67.86;98056.63;5013820;28;20060;-64
2022/05/31 04:23:57;;;;;;;0.30;0.30;;;;;;;10.82;67.65;98053.75;5013699;28;20037;-63
2022/05/31 04:25:41;;;;;;;0.10;0.10;;;;;;;10.89;67.43;98053.53;5032737;28;20040;-65
2022/05/31 04:28:09;;;;;;;0.10;0.10;;;;;;;10.91;67.70;98059.63;5031739;28;20045;-64
2022/05/31 04:30:42;;;;;;;0.10;0.10;;;;;;;10.80;67.87;98060.56;5015662;28;20042;-64
2022/05/31 04:33:10;;;;;;;0.10;0.10;;;;;;;10.69;68.31;98065.94;5029609;28;20041;-65
2022/05/31 04:35:38;;;;;;;0.20;0.20;;;;;;;10.70;68.48;98083.22;5032084;28;20049;-65
2022/05/31 04:38:06;;;;;;;0.30;0.30;;;;;;;10.76;68.29;98071.25;5015801;28;20045;-65
2022/05/31 04:40:36;;;;;;;0.10;0.10;;;;;;;10.94;68.04;98083.81;5022547;28;20071;-63
2022/05/31 04:43:04;;;;;;;0.20;0.20;;;;;;;11.11;67.74;98091.16;5035072;28;20029;-65
2022/05/31 04:45:31;;;;;;;0.30;0.30;;;;;;;11.21;67.56;98091.28;5034719;28;20091;-63
2022/05/31 04:48:00;;;;;;;0.30;0.30;;;;;;;11.58;66.83;98096.09;5035185;28;20041;-63
2022/05/31 04:50:27;;;;;;;0.30;0.30;;;;;;;11.80;66.44;98101.53;5032500;28;20094;-63
2022/05/31 04:52:56;;;;;;;0.20;0.20;;;;;;;11.95;66.09;98100.88;5034971;28;20037;-63
2022/05/31 04:55:23;;;;;;;0.13;0.13;;;;;;;12.04;66.18;98112.25;5034698;28;20037;-65
2022/05/31 04:57:51;;;;;;;0.25;0.25;;;;;;;12.08;66.36;98111.44;5034463;28;20499;-64
2022/05/31 05:00:20;;;;;;;0.28;0.28;;;;;;;12.06;66.54;98110.06;5035134;28;20033;-63
2022/05/31 05:02:47;;;;;;;0.10;0.10;;;;;;;12.06;66.72;98121.09;5034774;28;20131;-64
2022/05/31 05:05:16;;;;;;;0.15;0.15;;;;;;;11.95;67.12;98124.81;5034696;28;20056;-63
2022/05/31 05:07:44;;;;;;;0.10;0.10;;;;;;;11.78;67.71;98136.75;5034769;28;20048;-63
2022/05/31 05:10:14;;;;;;;0.10;0.10;;;;;;;12.00;67.15;98138.59;5046255;28;20045;-63
2022/05/31 05:12:42;;;;;;;0.10;0.10;;;;;;;12.15;66.79;98135.19;5031391;28;20124;-64
2022/05/31 05:15:09;;;;;;;0.10;0.10;;;;;;;12.44;66.22;98138.47;5030785;28;20534;-63
2022/05/31 05:17:38;;;;;;;0.20;0.20;;;;;;;12.40;66.22;98131.81;5031167;28;20041;-68
2022/05/31 05:20:05;;;;;;;0.15;0.15;;;;;;;12.07;67.25;98150.25;5014992;28;20037;-64
2022/05/31 05:22:34;;;;;;;0.10;0.10;;;;;;;11.84;67.73;98145.88;5029643;28;20049;-67
2022/05/31 05:25:03;;;;;;;0.13;0.13;;;;;;;11.83;67.71;98155.22;5031265;28;20030;-64
2022/05/31 05:27:31;;;;;;;0.40;0.40;;;;;;;11.90;67.84;98162.16;5031065;28;20072;-63
2022/05/31 05:32:44;;;;;;;0.40;0.40;;;;;;;11.82;68.06;98170.91;5032340;28;20107;-63
2022/05/31 05:35:10;;;;;;;0.20;0.20;;;;;;;11.76;68.15;98177.41;5031038;28;20416;-63
2022/05/31 05:37:36;;;;;;;0.20;0.20;;;;;;;11.81;68.16;98174.72;5032292;28;20053;-64
2022/05/31 05:40:05;;;;;;;0.30;0.20;;;;;;;11.85;68.21;98169.53;5045699;28;20048;-63
2022/05/31 05:42:34;;;;;;;0.13;0.13;;;;;;;11.84;68.20;98190.72;5050361;28;20122;-63
2022/05/31 05:45:03;;;;;;;0.38;0.38;;;;;;;12.08;67.55;98176.66;5030508;28;20045;-63
2022/05/31 05:47:30;;;;;;;0.30;0.30;;;;;;;12.24;66.94;98186.72;5032379;28;20052;-64
2022/05/31 05:49:59;;;;;;;1.23;0.38;;;;;;;12.39;66.46;98193.47;5014402;28;20128;-64
2022/05/31 05:52:29;;;;;;;0.20;0.20;;;;;;;12.49;66.48;98188.06;5030798;28;20068;-63
2022/05/31 05:54:56;;;;;;;0.20;0.20;;;;;;;12.49;66.46;98196.31;5036199;28;20041;-64
2022/05/31 05:57:24;;;;;;;1.95;0.30;;;;;;;12.40;66.65;98197.91;5034018;28;20041;-62
2022/05/31 05:59:52;;;;;;;0.20;0.20;;;;;;;12.24;66.98;98196.91;5034034;28;20467;-64
2022/05/31 06:02:29;;;;;;;0.45;0.30;;;;;;;12.12;67.06;98193.47;5034516;28;20033;-64
2022/05/31 06:05:10;;;;;;;0.22;0.22;;;;;;;11.96;67.62;98206.28;5050925;28;20041;-62
2022/05/31 06:07:40;;;;;;;0.20;0.20;;;;;;;11.78;67.68;98201.91;5034453;28;20046;-63
2022/05/31 06:10:18;;;;;;;0.52;0.52;;;;;;;11.71;67.85;98204.84;5027541;28;20046;-62
2022/05/31 06:12:52;;;;;;;0.45;0.45;;;;;;;11.88;67.27;98210.25;5015161;28;20065;-63
2022/05/31 06:15:22;;;;;;;0.47;0.47;;;;;;;12.26;66.29;98214.00;5032138;28;20064;-63
2022/05/31 06:17:54;;;;;;;0.40;0.40;;;;;;;12.75;65.27;98205.63;5027355;28;20052;-63
2022/05/31 06:20:20;;;;;;;0.45;0.40;;;;;;;13.40;63.86;98210.19;5001182;28;20392;-63
2022/05/31 06:22:47;;;;;;;0.22;0.22;;;;;;;13.89;62.62;98217.28;5030713;28;20057;-61
2022/05/31 06:25:17;;;;;;;0.30;0.30;;;;;;;13.78;63.17;98217.25;5041298;28;20037;-62
2022/05/31 06:27:44;;;;;;;0.50;0.50;;;;;;;13.57;64.04;98232.03;5022652;28;20045;-62
2022/05/31 06:30:12;;;;;;;0.10;0.10;;;;;;;13.49;63.94;98233.38;5040296;28;20136;-62
2022/05/31 06:32:42;;;;;;;0.25;0.25;;;;;;;13.49;64.25;98227.88;5013319;28;20483;-62
2022/05/31 06:35:09;;;;;;;2.45;0.45;;;;;;;13.58;64.07;98230.94;5026285;28;20060;-62
2022/05/31 06:37:39;;;;;;;0.40;0.40;;;;;;;13.78;63.28;98228.28;5022852;28;20041;-62
2022/05/31 06:40:06;;;;;;;0.40;0.40;;;;;;;13.78;63.25;98231.03;5016878;28;20079;-63
2022/05/31 06:42:34;;;;;;;0.55;0.50;;;;;;;13.96;63.30;98229.72;5020052;28;20041;-62
2022/05/31 06:45:02;;;;;;;0.47;0.47;;;;;;;14.32;62.46;98246.34;5026451;28;20045;-61
2022/05/31 06:47:31;;;;;;;0.60;0.60;;;;;;;14.77;61.15;98237.63;5015987;28;20734;-62
2022/05/31 06:49:59;;;;;;;0.47;0.45;;;;;;;15.30;60.03;98246.41;5034176;28;20065;-62
2022/05/31 06:57:59;;;;;;;0.20;0.20;;;;;;;15.53;60.17;98239.44;5034299;28;20051;-61
2022/05/31 07:00:26;;;;;;;0.73;0.32;;;;;;;15.00;61.36;98248.09;5032395;28;20051;-64
2022/05/31 07:02:59;;;;;;;0.43;0.32;;;;;;;14.48;62.77;98244.44;5033832;28;20080;-62
2022/05/31 07:05:26;;;;;;;0.57;0.40;;;;;;;14.37;63.07;98246.38;5033670;28;20034;-64
2022/05/31 07:07:55;;;;;;;0.73;0.73;;;;;;;14.78;61.83;98253.06;5016037;28;20042;-66
2022/05/31 07:10:21;;;;;;;1.67;0.73;;;;;;;14.98;61.35;98258.59;5029437;28;20515;-64
2022/05/31 07:12:48;;;;;;;2.92;0.43;;;;;;;15.07;61.09;98261.63;5013076;28;20049;-65
2022/05/31 07:15:16;;;;;;;0.75;0.70;;;;;;;14.95;61.30;98267.44;5015132;28;20041;-63
2022/05/31 07:17:44;;;;;;;0.50;0.50;;;;;;;14.59;61.90;98270.16;5015612;28;20522;-63
2022/05/31 07:20:11;;;;;;;0.52;0.30;;;;;;;14.41;62.19;98271.50;5033908;28;20487;-64
2022/05/31 07:22:40;;;;;;;0.20;0.20;;;;;;;14.31;62.69;98265.97;5015761;28;20072;-62
2022/05/31 07:25:09;;;;;;;1.08;0.30;;;;;;;14.55;61.73;98275.41;5015632;28;20042;-60
2022/05/31 07:27:37;;;;;;;0.40;0.40;;;;;;;15.16;60.20;98270.19;5015353;28;20053;-62
2022/05/31 07:30:04;;;;;;;1.05;0.32;;;;;;;15.84;58.69;98269.78;5033668;28;20053;-64
2022/05/31 07:32:32;;;;;;;0.20;0.20;;;;;;;16.37;57.69;98285.88;5015206;28;20041;-64
2022/05/31 07:34:59;;;;;;;0.43;0.43;;;;;;;16.56;57.21;98276.88;5016652;28;20048;-65
2022/05/31 07:37:27;;;;;;;0.20;0.20;;;;;;;16.49;57.67;98288.31;5031262;28;20060;-64
2022/05/31 07:39:57;;;;;;;2.17;0.95;;;;;;;16.15;58.42;98279.88;5015723;28;20120;-64
2022/05/31 07:42:25;;;;;;;0.10;0.10;;;;;;;15.92;58.79;98285.81;5015373;28;20079;-63
2022/05/31 07:44:56;;;;;;;0.13;0.13;;;;;;;15.66;59.41;98282.25;5016636;28;20045;-64
2022/05/31 07:47:25;;;;;;;0.30;0.30;;;;;;;15.16;60.73;98295.09;5015066;28;20044;-65
2022/05/31 07:49:53;;;;;;;0.20;0.20;;;;;;;14.70;61.66;98305.00;5015017;28;20180;-65
2022/05/31 07:52:20;;;;;;;2.80;0.77;;;;;;;14.37;61.92;98307.13;5013299;28;20041;-67
2022/05/31 07:54:46;;;;;;;0.10;0.10;;;;;;;14.14;62.11;98307.63;5030635;28;20128;-62
2022/05/31 08:00:01;;;;;;;0.20;0.20;;;;;;;14.24;61.65;98318.69;5032725;28;20041;-67
2022/05/31 08:02:28;;;;;;;0.17;0.17;;;;;;;14.66;60.50;98320.50;5031616;28;20037;-63
2022/05/31 08:04:55;;;;;;;0.82;0.30;;;;;;;14.95;59.40;98324.69;5046092;28;20052;-65
2022/05/31 08:07:22;;;;;;;0.17;0.17;;;;;;;15.06;59.15;98329.09;5015046;28;20052;-65
2022/05/31 08:09:49;;;;;;;0.30;0.30;;;;;;;14.94;59.53;98326.59;5044299;28;20890;-63
2022/05/31 08:12:17;;;;;;;0.20;0.20;;;;;;;14.69;59.86;98330.16;4995333;28;20523;-61
2022/05/31 08:14:45;;;;;;;0.25;0.25;;;;;;;14.36;60.74;98338.59;5039845;28;20111;-68
2022/05/31 08:17:14;;;;;;;0.17;0.17;;;;;;;14.09;61.17;98338.81;5019215;28;20042;-63
2022/05/31 08:19:43;;;;;;;0.15;0.15;;;;;;;13.97;61.50;98338.19;5031192;28;20044;-63
2022/05/31 08:22:13;;;;;;;0.10;0.10;;;;;;;14.05;61.01;98336.84;5031944;28;20407;-63
2022/05/31 08:24:40;;;;;;;0.13;0.13;;;;;;;14.19;60.38;98344.38;5030150;28;20127;-63
2022/05/31 08:27:07;;;;;;;0.20;0.20;;;;;;;14.02;60.75;98347.31;5031084;28;20542;-63
2022/05/31 08:29:37;;;;;;;0.20;0.20;;;;;;;13.93;61.05;98348.13;5014704;28;20041;-64
2022/05/31 08:32:06;;;;;;;0.20;0.20;;;;;;;14.11;60.53;98335.78;5029556;28;20076;-65
2022/05/31 08:34:34;;;;;;;0.20;0.20;;;;;;;14.45;59.38;98338.09;5030982;28;20061;-65
2022/05/31 08:37:01;;;;;;;0.20;0.20;;;;;;;15.05;58.01;98347.63;5025847;28;20046;-65
2022/05/31 08:39:28;;;;;;;0.30;0.30;;;;;;;15.61;57.06;98337.63;5038163;28;20061;-64
2022/05/31 08:42:02;;;;;;;0.13;0.13;;;;;;;16.00;56.03;98337.00;5039204;28;20037;-60
2022/05/31 08:44:56;;;;;;;0.20;0.20;;;;;;;16.22;55.62;98338.59;5033676;28;20087;-63
2022/05/31 08:47:43;;;;;;;0.22;0.22;;;;;;;16.24;56.00;98341.91;5031317;28;20745;-64
2022/05/31 08:53:12;;;;;;;0.30;0.30;;;;;;;16.35;55.69;98337.16;5032289;28;20060;-63
2022/05/31 08:58:43;;;;;;;0.10;0.10;;;;;;;16.23;55.85;98338.28;5032593;28;20154;-66
2022/05/31 09:01:15;;;;;;;0.22;0.22;;;;;;;15.66;57.53;98337.59;5013724;28;20470;-64
2022/05/31 09:03:49;;;;;;;0.45;0.43;;;;;;;15.19;58.37;98349.84;5014239;28;20103;-63
2022/05/31 09:06:30;;;;;;;0.10;0.10;;;;;;;14.81;59.12;98354.78;5031959;28;20049;-64
2022/05/31 09:09:02;;;;;;;0.38;0.38;;;;;;;14.65;59.67;98360.28;5013686;28;20041;-64
2022/05/31 09:11:34;;;;;;;0.40;0.40;;;;;;;14.72;59.35;98360.00;5030445;28;20063;-66
2022/05/31 09:14:41;;;;;;;0.20;0.20;;;;;;;15.03;58.16;98358.13;5030275;28;20041;-67
2022/05/31 09:17:29;;;;;;;0.10;0.10;;;;;;;15.38;57.23;98363.94;4926444;29;20044;-65
2022/05/31 09:20:21;;;;;;;0.22;0.22;;;;;;;15.46;57.23;98370.84;5040518;28;20041;-64
2022/05/31 09:22:49;;;;;;;0.20;0.20;;;;;;;15.62;56.52;98371.66;5030143;28;20041;-65
2022/05/31 09:25:16;;;;;;;0.60;0.50;;;;;;;15.98;56.16;98364.16;5016879;28;20039;-64
2022/05/31 09:27:46;;;;;;;0.10;0.10;;;;;;;16.31;55.13;98350.72;5029066;28;20128;-63
2022/05/31 09:30:19;;;;;;;0.20;0.20;;;;;;;16.63;54.45;98369.69;5046029;28;20128;-63
2022/05/31 09:33:09;;;;;;;0.10;0.10;;;;;;;17.06;53.53;98363.63;5031914;28;20132;-63
2022/05/31 09:35:51;;;;;;;0.25;0.20;;;;;;;17.22;53.46;98369.06;4994009;28;20054;-61
2022/05/31 09:38:35;;;;;;;0.20;0.20;;;;;;;17.26;53.43;98376.53;5004567;28;20045;-62
2022/05/31 09:41:17;;;;;;;0.20;0.20;;;;;;;17.12;53.89;98368.03;4999685;28;20030;-64
2022/05/31 09:43:49;;;;;;;0.15;0.15;;;;;;;17.04;54.09;98384.47;4977783;28;20065;-65
2022/05/31 09:46:46;;;;;;;0.13;0.13;;;;;;;16.92;54.19;98379.28;5010292;28;20073;-66
2022/05/31 09:49:39;;;;;;;0.10;0.10;;;;;;;16.92;54.01;98377.31;4990469;28;20057;-63
2022/05/31 09:52:15;;;;;;;0.52;0.52;;;;;;;16.90;54.15;98364.84;4992017;28;20042;-62
2022/05/31 09:58:07;;;;;;;0.20;0.20;;;;;;;16.48;54.76;98369.78;4990418;28;20419;-64
2022/05/31 10:00:36;;;;;;;0.28;0.28;;;;;;;16.25;54.94;98380.41;5011609;28;20033;-66
2022/05/31 10:03:12;;;;;;;0.30;0.30;;;;;;;16.16;55.18;98376.53;5029362;28;20145;-66
2022/05/31 10:05:42;;;;;;;0.20;0.20;;;;;;;16.20;54.89;98380.41;5013036;28;20084;-63
2022/05/31 10:08:31;;;;;;;0.17;0.17;;;;;;;16.28;54.34;98388.16;4981198;28;20046;-65
2022/05/31 10:11:03;;;;;;;0.30;0.30;;;;;;;16.44;54.08;98388.94;5028058;28;20123;-63
2022/05/31 10:13:38;;;;;;;0.20;0.20;;;;;;;16.71;53.49;98373.81;4998140;28;20034;-63
2022/05/31 10:16:10;;;;;;;0.20;0.20;;;;;;;17.15;52.68;98378.56;4997908;28;20330;-64
2022/05/31 10:18:57;;;;;;;0.22;0.22;;;;;;;17.56;51.60;98382.09;5023851;28;20048;-63
2022/05/31 10:21:30;;;;;;;0.22;0.22;;;;;;;17.74;51.32;98375.84;5033502;28;20069;-64
2022/05/31 10:24:05;;;;;;;0.40;0.40;;;;;;;17.64;51.53;98375.94;5018072;28;20137;-63
2022/05/31 10:26:34;;;;;;;0.10;0.10;;;;;;;17.57;51.58;98383.78;5025864;28;20052;-62
2022/05/31 10:29:12;;;;;;;0.22;0.22;;;;;;;17.42;51.91;98387.50;5033144;28;20037;-61
2022/05/31 10:31:41;;;;;;;0.10;0.10;;;;;;;17.26;52.42;98384.84;5016939;28;20045;-62
2022/05/31 10:34:42;;;;;;;0.40;0.28;;;;;;;17.05;52.64;98395.28;5027366;28;20056;-62
2022/05/31 10:37:25;;;;;;;0.20;0.20;;;;;;;16.87;53.18;98384.81;5035812;28;20495;-66
2022/05/31 10:40:16;;;;;;;0.10;0.10;;;;;;;16.98;52.83;98394.75;5023982;28;20132;-62
2022/05/31 10:42:48;;;;;;;0.20;0.20;;;;;;;17.03;52.56;98391.94;5016570;28;20100;-62
2022/05/31 10:45:31;;;;;;;0.43;0.43;;;;;;;17.20;51.99;98386.00;5033650;28;20514;-63
2022/05/31 10:48:00;;;;;;;0.10;0.10;;;;;;;17.30;51.77;98385.94;5033496;28;20052;-63
2022/05/31 10:50:53;;;;;;;0.13;0.13;;;;;;;17.54;51.36;98395.47;5016274;28;20384;-63
2022/05/31 10:53:51;;;;;;;0.20;0.20;;;;;;;17.56;51.34;98387.66;5032679;28;20041;-62
2022/05/31 10:56:30;;;;;;;0.20;0.20;;;;;;;17.55;51.27;98386.84;4990545;28;20041;-61
2022/05/31 10:59:03;;;;;;;0.50;0.47;;;;;;;17.52;51.49;98390.19;5050495;28;20052;-63
2022/05/31 11:01:49;;;;;;;0.20;0.20;;;;;;;17.38;51.66;98395.56;5004014;28;20037;-63
2022/05/31 11:04:23;;;;;;;0.20;0.20;;;;;;;17.07;52.21;98394.97;5034479;28;20041;-66
2022/05/31 11:07:07;;;;;;;0.43;0.43;;;;;;;16.82;52.47;98380.94;5032499;28;20041;-66
2022/05/31 11:16:50;;;;;;;0.10;0.10;;;;;;;17.09;51.62;98385.25;5029509;28;20051;-64
2022/05/31 11:19:33;;;;;;;0.10;0.10;;;;;;;16.84;52.22;98390.94;5033192;28;20046;-66
2022/05/31 11:22:26;;;;;;;0.30;0.30;;;;;;;16.62;52.24;98395.75;5035060;28;20049;-67
2022/05/31 11:25:19;;;;;;;0.20;0.20;;;;;;;16.51;52.16;98393.31;5033619;28;20033;-64
2022/05/31 11:28:10;;;;;;;0.20;0.20;;;;;;;16.48;52.48;98397.50;5033505;28;20461;-64
2022/05/31 11:31:08;;;;;;;0.20;0.20;;;;;;;16.40;52.32;98407.22;5033477;28;20068;-61
2022/05/31 11:33:36;;;;;;;0.20;0.20;;;;;;;16.33;52.27;98415.00;5047479;28;20522;-64
2022/05/31 11:36:08;;;;;;;0.15;0.15;;;;;;;16.37;51.83;98401.41;5045498;28;20049;-67
2022/05/31 11:39:15;;;;;;;0.20;0.20;;;;;;;16.51;51.37;98407.19;5033632;28;20045;-61
2022/05/31 11:42:04;;;;;;;0.30;0.30;;;;;;;16.70;50.97;98410.97;5009197;28;20041;-61
2022/05/31 11:44:54;;;;;;;0.73;0.73;;;;;;;16.81;50.72;98412.56;5010284;28;20482;-62
2022/05/31 11:47:39;;;;;;;0.32;0.30;;;;;;;16.99;50.34;98424.97;5033332;28;20428;-64
2022/05/31 11:50:23;;;;;;;0.30;0.30;;;;;;;17.10;50.06;98434.06;5033218;28;20041;-68
2022/05/31 11:53:11;;;;;;;0.95;0.40;;;;;;;16.92;50.36;98424.47;5033148;28;20415;-60
2022/05/31 11:55:50;;;;;;;0.43;0.43;;;;;;;16.62;50.91;98428.19;5033076;28;20048;-62
2022/05/31 11:58:37;;;;;;;0.20;0.20;;;;;;;16.32;51.77;98431.91;5033154;28;20284;-61
2022/05/31 12:01:11;;;;;;;0.20;0.20;;;;;;;16.10;52.04;98435.84;5033550;28;20072;-60
2022/05/31 12:03:57;;;;;;;0.20;0.20;;;;;;;16.03;52.28;98435.28;5034006;28;20100;-62
2022/05/31 12:06:35;;;;;;;0.30;0.30;;;;;;;15.99;51.90;98435.03;5033938;28;20037;-62
2022/05/31 12:09:14;;;;;;;0.25;0.25;;;;;;;16.06;52.03;98434.72;5034132;28;20041;-63
2022/05/31 12:12:07;;;;;;;0.50;0.47;;;;;;;16.20;51.23;98429.44;5033902;28;20045;-62
2022/05/31 12:14:39;;;;;;;0.50;0.50;;;;;;;16.41;50.87;98428.25;5033384;28;20460;-62
2022/05/31 12:17:06;;;;;;;0.28;0.28;;;;;;;16.61;50.62;98432.09;5033461;28;20053;-62
2022/05/31 12:20:04;;;;;;;0.13;0.13;;;;;;;16.87;49.86;98426.41;5033751;28;20048;-64
2022/05/31 12:22:38;;;;;;;0.35;0.35;;;;;;;17.11;49.76;98423.81;5033747;28;20049;-63
2022/05/31 12:25:20;;;;;;;0.75;0.75;;;;;;;17.27;49.44;98430.06;5033513;28;20044;-63
2022/05/31 12:27:53;;;;;;;0.20;0.20;;;;;;;17.25;49.15;98435.06;5033416;28;20389;-64
2022/05/31 12:30:26;;;;;;;0.93;0.68;;;;;;;17.22;49.30;98430.09;5033492;28;20053;-62
2022/05/31 12:32:55;;;;;;;1.45;0.45;;;;;;;17.24;49.30;98437.03;5033293;28;20110;-65
2022/05/31 12:35:33;;;;;;;0.32;0.20;;;;;;;17.30;49.25;98435.06;5034047;28;20523;-63
2022/05/31 12:38:02;;;;;;;0.30;0.30;;;;;;;17.30;49.15;98441.41;5033610;28;20041;-63